Time;durP1;ratioP1;P1;durP2;ratioP2;P2;SDS_P1;SDS_P2;PMS_P1;PMS_P2;Temp;Humidity;BMP_temperature;BMP_pressure;BME280_temperature;BME280_humidity;BME280_pressure;Samples;Min_cycle;Max_cycle;Signal;HPM_P1;HPM_P2
2023/01/26 00:02:28;;;;;;;19.80;13.10;;;;;;;3.20;62.74;99786.84;233763;1192;138570;-77
2023/01/26 00:07:31;;;;;;;18.80;11.10;;;;;;;3.21;62.64;99779.64;233966;1192;138780;-76
2023/01/26 00:12:35;;;;;;;16.50;11.40;;;;;;;3.13;62.96;99764.57;235600;1193;138676;-77
2023/01/26 00:17:38;;;;;;;21.10;12.70;;;;;;;3.10;63.05;99756.37;235432;1192;138930;-77
2023/01/26 00:22:42;;;;;;;17.20;11.70;;;;;;;3.18;62.84;99749.02;235472;1196;138484;-78
2023/01/26 00:27:46;;;;;;;18.80;11.60;;;;;;;3.17;62.03;99754.80;234058;1193;139436;-78
2023/01/26 00:32:49;;;;;;;20.90;13.40;;;;;;;3.09;61.79;99748.48;235316;1192;138674;-77
2023/01/26 00:37:53;;;;;;;18.30;12.10;;;;;;;3.13;61.98;99744.40;233712;1192;138121;-78
2023/01/26 00:42:58;;;;;;;16.40;11.60;;;;;;;3.20;61.95;99737.06;235519;1192;138696;-77
2023/01/26 00:48:01;;;;;;;19.90;13.30;;;;;;;3.12;61.55;99738.80;235422;1193;138656;-80
2023/01/26 00:53:04;;;;;;;22.90;13.70;;;;;;;3.10;61.75;99731.84;235350;1192;138677;-79
2023/01/26 00:58:08;;;;;;;20.10;13.00;;;;;;;3.12;62.02;99721.27;233808;1194;138357;-80
2023/01/26 01:03:12;;;;;;;20.10;12.90;;;;;;;3.16;61.90;99715.41;235520;1192;139755;-78
2023/01/26 01:08:15;;;;;;;21.00;13.20;;;;;;;3.10;61.83;99713.23;235351;1193;138040;-79
2023/01/26 01:13:18;;;;;;;25.20;15.90;;;;;;;3.07;62.40;99711.90;235402;1192;138261;-78
2023/01/26 01:18:22;;;;;;;23.20;14.50;;;;;;;3.14;62.16;99707.55;235650;1193;138703;-75
2023/01/26 01:23:28;;;;;;;23.10;15.30;;;;;;;3.10;62.09;99705.89;235451;1192;139066;-78
2023/01/26 01:28:33;;;;;;;22.90;14.50;;;;;;;3.16;62.17;99700.68;235446;1192;139029;-78
2023/01/26 01:33:40;;;;;;;19.90;13.40;;;;;;;3.13;62.34;99694.07;234057;1192;138404;-78
2023/01/26 01:38:44;;;;;;;22.40;14.70;;;;;;;3.08;62.60;99686.11;235313;1193;137943;-78
2023/01/26 01:43:49;;;;;;;20.80;14.30;;;;;;;3.04;62.49;99683.38;235463;1193;138370;-78
2023/01/26 01:49:13;;;;;;;22.30;13.60;;;;;;;3.05;62.62;99685.81;235282;1196;138428;-77
2023/01/26 01:54:22;;;;;;;25.40;14.40;;;;;;;3.04;62.82;99678.30;235456;1193;138028;-75
2023/01/26 01:59:25;;;;;;;22.20;14.60;;;;;;;3.07;62.66;99679.82;234726;1193;138731;-79
2023/01/26 02:04:31;;;;;;;27.20;15.40;;;;;;;3.08;62.61;99678.40;235240;1193;138296;-78
2023/01/26 02:15:02;;;;;;;25.90;16.70;;;;;;;3.12;62.59;99672.00;235459;1192;138355;-83
2023/01/26 02:20:33;;;;;;;27.80;17.30;;;;;;;3.15;62.56;99668.27;235580;1192;138078;-83
2023/01/26 02:26:02;;;;;;;22.30;14.50;;;;;;;3.16;62.16;99662.27;235329;1193;138132;-82
2023/01/26 02:31:09;;;;;;;22.60;14.70;;;;;;;3.18;62.50;99653.66;235063;1192;138312;-84
2023/01/26 02:36:24;;;;;;;22.80;14.10;;;;;;;3.16;62.57;99650.18;235302;1193;139450;-84
2023/01/26 02:47:25;;;;;;;21.30;14.40;;;;;;;3.11;62.83;99635.22;234950;1192;138064;-82
2023/01/26 02:52:32;;;;;;;24.20;15.90;;;;;;;3.08;62.63;99631.41;235631;1193;138084;-83
2023/01/26 02:57:41;;;;;;;24.80;15.60;;;;;;;3.06;62.59;99629.54;234356;1193;138046;-81
2023/01/26 03:02:46;;;;;;;21.70;14.70;;;;;;;3.05;62.48;99629.38;233545;1192;138345;-83
2023/01/26 03:07:50;;;;;;;23.50;14.90;;;;;;;3.06;62.78;99630.07;235500;1192;138155;-76
2023/01/26 03:12:55;;;;;;;23.90;15.20;;;;;;;3.07;62.68;99627.59;235293;1193;139270;-77
2023/01/26 03:29:56;;;;;;;21.10;14.40;;;;;;;2.98;62.79;99624.27;234675;1192;138657;-78
2023/01/26 03:35:01;;;;;;;22.00;14.80;;;;;;;2.99;62.92;99618.65;234609;1193;138316;-80
2023/01/26 03:56:21;;;;;;;26.70;16.20;;;;;;;2.96;62.85;99593.13;234827;1192;137969;-78
2023/01/26 04:01:26;;;;;;;24.10;15.50;;;;;;;3.03;62.45;99598.75;235563;1193;139038;-79
2023/01/26 04:11:58;;;;;;;173.80;110.30;;;;;;;3.07;62.70;99598.31;234875;1193;139255;-71
2023/01/26 04:22:25;;;;;;;32.00;19.70;;;;;;;3.11;62.48;99584.21;235482;1193;138195;-74
2023/01/26 04:27:33;;;;;;;25.60;16.20;;;;;;;3.10;62.28;99572.83;235546;1193;138334;-73
2023/01/26 04:32:38;;;;;;;23.60;15.50;;;;;;;3.04;62.35;99565.08;235424;1193;138838;-73
2023/01/26 04:37:43;;;;;;;21.30;14.80;;;;;;;3.00;62.30;99563.06;233996;1193;138531;-74
2023/01/26 04:42:46;;;;;;;24.40;16.40;;;;;;;2.96;61.74;99566.13;235642;1192;138772;-77
2023/01/26 04:47:51;;;;;;;23.70;16.10;;;;;;;2.80;62.01;99562.10;235664;1193;138507;-77
2023/01/26 04:52:54;;;;;;;27.50;16.70;;;;;;;2.81;61.77;99554.03;235965;1192;138678;-73
2023/01/26 04:57:58;;;;;;;108.60;65.70;;;;;;;2.85;62.04;99550.78;233027;1192;138032;-71
2023/01/26 05:03:05;;;;;;;31.20;19.70;;;;;;;2.93;62.48;99543.97;234344;1191;138649;-73
2023/01/26 05:08:13;;;;;;;23.50;14.90;;;;;;;2.96;61.51;99543.71;235320;1192;139022;-73
2023/01/26 05:13:19;;;;;;;24.70;15.80;;;;;;;2.93;61.31;99546.25;232433;1196;138780;-71
2023/01/26 05:18:49;;;;;;;269.70;167.90;;;;;;;2.90;61.78;99545.60;234636;1191;138939;-72
2023/01/26 05:24:07;;;;;;;32.00;21.20;;;;;;;2.97;61.81;99541.05;235313;1193;139965;-74
2023/01/26 05:29:29;;;;;;;26.10;17.80;;;;;;;2.97;61.12;99544.38;235386;1192;139336;-73
2023/01/26 05:34:32;;;;;;;26.40;16.90;;;;;;;2.96;61.08;99545.98;235409;1192;138631;-72
2023/01/26 05:39:36;;;;;;;26.50;17.70;;;;;;;2.96;61.47;99551.75;235340;1192;138423;-72
2023/01/26 05:44:41;;;;;;;25.00;15.70;;;;;;;2.94;61.58;99551.80;235092;1192;139868;-72
2023/01/26 05:49:47;;;;;;;23.80;15.60;;;;;;;2.91;61.22;99542.94;233480;1192;138890;-73
2023/01/26 05:54:59;;;;;;;27.70;16.60;;;;;;;2.89;61.58;99538.26;235282;1192;139139;-73
2023/01/26 06:00:05;;;;;;;26.40;16.60;;;;;;;2.85;61.31;99537.48;234575;1192;140030;-75
2023/01/26 06:05:16;;;;;;;28.90;17.10;;;;;;;2.85;61.09;99539.76;234507;1193;138937;-73
2023/01/26 06:10:20;;;;;;;24.90;15.40;;;;;;;2.87;61.57;99538.33;235564;1193;138512;-73
2023/01/26 06:15:34;;;;;;;23.30;16.10;;;;;;;2.86;61.73;99544.29;235497;1192;138686;-73
2023/01/26 06:20:38;;;;;;;24.50;15.60;;;;;;;2.86;61.50;99546.58;234122;1193;138929;-73
2023/01/26 06:25:42;;;;;;;23.70;15.80;;;;;;;2.85;61.17;99546.39;235292;1192;138404;-73
2023/01/26 06:30:45;;;;;;;22.20;15.60;;;;;;;2.84;60.62;99548.38;235522;1193;139017;-73
2023/01/26 06:35:50;;;;;;;26.90;16.10;;;;;;;2.83;60.14;99544.19;235565;1192;138595;-72
2023/01/26 06:40:54;;;;;;;21.80;14.70;;;;;;;2.80;59.67;99544.77;235196;1192;138461;-73
2023/01/26 06:45:58;;;;;;;24.80;15.60;;;;;;;2.81;59.59;99546.52;235441;1192;138660;-73
2023/01/26 06:51:05;;;;;;;27.60;16.10;;;;;;;2.84;59.55;99544.69;235414;1192;138620;-73
2023/01/26 06:56:08;;;;;;;25.20;17.40;;;;;;;2.80;59.47;99542.48;234189;1192;138503;-73
2023/01/26 07:01:32;;;;;;;24.10;15.90;;;;;;;2.81;59.64;99539.66;235532;1192;138767;-73
2023/01/26 07:06:36;;;;;;;25.60;16.70;;;;;;;2.80;59.53;99536.53;235130;1192;141372;-72
2023/01/26 07:11:39;;;;;;;25.10;16.70;;;;;;;2.87;59.84;99544.10;235526;1192;138862;-72
2023/01/26 07:16:43;;;;;;;32.30;17.40;;;;;;;2.87;59.41;99536.57;235630;1192;138843;-72
2023/01/26 07:21:47;;;;;;;28.80;17.40;;;;;;;2.86;60.03;99533.95;234394;1193;139118;-71
2023/01/26 07:26:51;;;;;;;27.70;16.30;;;;;;;2.90;60.28;99533.52;235516;1192;138688;-71
2023/01/26 07:31:54;;;;;;;31.20;17.20;;;;;;;2.90;60.42;99528.79;235544;1192;138471;-73
2023/01/26 07:36:58;;;;;;;26.00;16.30;;;;;;;2.87;60.52;99519.73;235385;1192;138568;-71
2023/01/26 07:42:03;;;;;;;27.10;17.20;;;;;;;2.90;60.64;99518.27;234171;1195;139320;-71
2023/01/26 07:47:20;;;;;;;27.70;17.30;;;;;;;2.92;60.70;99514.70;234841;1193;139623;-72
2023/01/26 07:52:24;;;;;;;31.00;17.80;;;;;;;2.94;60.64;99519.23;234226;1192;138722;-71
2023/01/26 07:57:30;;;;;;;31.00;18.40;;;;;;;2.99;60.47;99518.05;234554;1193;139236;-71
2023/01/26 08:02:35;;;;;;;26.40;17.40;;;;;;;2.99;60.70;99520.85;235141;1192;138777;-71
2023/01/26 08:07:39;;;;;;;27.80;17.60;;;;;;;3.00;60.66;99528.90;235267;1193;138483;-72
2023/01/26 08:12:45;;;;;;;26.60;16.80;;;;;;;2.98;60.84;99532.42;234659;1195;139436;-71
2023/01/26 08:17:49;;;;;;;26.70;17.00;;;;;;;2.98;60.86;99526.13;234724;1192;138189;-71
2023/01/26 08:22:56;;;;;;;25.30;16.30;;;;;;;2.99;60.56;99527.34;235601;1192;138771;-72
2023/01/26 08:28:04;;;;;;;25.40;16.20;;;;;;;2.99;60.67;99528.02;235503;1193;138309;-72
2023/01/26 08:33:09;;;;;;;28.20;18.30;;;;;;;3.01;60.78;99524.15;233732;1195;139202;-71
2023/01/26 08:38:45;;;;;;;27.60;17.50;;;;;;;3.02;60.98;99520.95;234788;1195;138911;-71
2023/01/26 08:45:00;;;;;;;28.20;17.90;;;;;;;3.06;60.69;99516.81;233416;1192;138524;-72
2023/01/26 08:50:12;;;;;;;27.20;17.20;;;;;;;3.08;60.66;99520.27;235557;1193;139171;-72
2023/01/26 08:55:16;;;;;;;23.70;16.00;;;;;;;3.06;60.18;99516.31;235462;1192;138925;-73
2023/01/26 09:00:22;;;;;;;23.90;16.10;;;;;;;3.06;60.50;99523.66;235895;1195;138475;-71
2023/01/26 09:05:26;;;;;;;26.40;16.30;;;;;;;3.09;60.30;99524.13;235381;1192;138942;-70
2023/01/26 09:10:31;;;;;;;25.30;16.90;;;;;;;3.08;60.38;99525.90;235432;1193;139132;-71
2023/01/26 09:15:36;;;;;;;25.10;16.40;;;;;;;3.10;60.57;99523.23;235239;1193;139377;-72
2023/01/26 09:20:41;;;;;;;96.70;57.80;;;;;;;3.12;60.78;99523.71;234944;1193;139872;-73
2023/01/26 09:25:45;;;;;;;32.50;19.80;;;;;;;3.20;60.74;99522.29;234996;1193;138883;-73
2023/01/26 09:30:50;;;;;;;28.20;18.00;;;;;;;3.22;60.42;99520.46;235337;1192;138823;-72
2023/01/26 09:35:55;;;;;;;27.60;17.40;;;;;;;3.22;59.93;99511.00;235325;1193;138246;-73
2023/01/26 09:41:14;;;;;;;26.50;16.80;;;;;;;3.20;60.04;99507.20;234542;1195;139063;-73
2023/01/26 09:46:23;;;;;;;25.40;16.70;;;;;;;3.21;60.37;99497.19;235327;1192;139559;-73
2023/01/26 09:51:43;;;;;;;115.90;68.30;;;;;;;3.22;60.49;99497.34;235326;1192;138192;-73
2023/01/26 09:56:47;;;;;;;36.00;20.10;;;;;;;3.27;60.59;99495.10;233754;1195;138868;-70
2023/01/26 10:02:19;;;;;;;29.10;17.40;;;;;;;3.24;60.08;99488.17;235398;1192;139146;-71
2023/01/26 10:07:25;;;;;;;29.10;16.70;;;;;;;3.20;60.27;99476.00;234191;1193;139188;-70
2023/01/26 10:12:35;;;;;;;24.50;15.60;;;;;;;3.19;60.72;99475.50;235694;1193;138792;-71
2023/01/26 10:18:01;;;;;;;22.70;15.20;;;;;;;3.17;60.16;99473.10;235231;1193;138952;-71
2023/01/26 10:23:16;;;;;;;24.50;15.80;;;;;;;3.15;60.25;99475.24;235624;1191;139536;-71
2023/01/26 10:28:33;;;;;;;24.10;15.30;;;;;;;3.17;60.23;99468.38;234917;1195;139024;-69
2023/01/26 10:33:45;;;;;;;23.40;15.30;;;;;;;3.15;60.11;99459.65;235577;1193;138493;-71
2023/01/26 10:38:51;;;;;;;23.30;16.00;;;;;;;3.12;60.36;99459.02;235489;1193;139177;-70
2023/01/26 10:43:58;;;;;;;22.80;14.70;;;;;;;3.15;60.68;99449.48;235009;1192;138951;-72
2023/01/26 10:49:23;;;;;;;21.60;14.30;;;;;;;3.20;60.58;99442.32;235561;1195;139246;-71
2023/01/26 10:54:27;;;;;;;19.70;14.30;;;;;;;3.23;60.76;99434.71;234992;1195;138357;-70
2023/01/26 10:59:42;;;;;;;24.00;14.50;;;;;;;3.20;60.77;99432.14;233726;1193;138634;-69
2023/01/26 11:05:07;;;;;;;21.70;14.40;;;;;;;3.18;60.78;99440.30;235576;1193;138585;-70
2023/01/26 11:10:31;;;;;;;20.10;13.70;;;;;;;3.17;60.72;99434.35;235320;1192;139299;-71
2023/01/26 11:15:42;;;;;;;20.30;13.60;;;;;;;3.18;60.39;99425.91;235550;1193;139221;-71
2023/01/26 11:20:58;;;;;;;19.10;13.10;;;;;;;3.18;60.40;99419.40;235199;1196;138799;-72
2023/01/26 11:26:32;;;;;;;24.60;14.60;;;;;;;3.20;60.89;99415.17;235007;1192;138341;-70
2023/01/26 11:31:46;;;;;;;21.40;14.10;;;;;;;3.23;60.63;99408.77;232963;1195;138191;-70
2023/01/26 11:36:59;;;;;;;21.00;14.00;;;;;;;3.27;60.84;99404.63;235116;1195;139052;-69
2023/01/26 11:42:41;;;;;;;22.80;14.70;;;;;;;3.25;60.29;99396.80;234590;1192;138373;-71
2023/01/26 11:48:06;;;;;;;218.10;131.30;;;;;;;3.23;60.72;99386.69;231347;1195;138728;-70
2023/01/26 11:53:40;;;;;;;31.90;18.50;;;;;;;3.32;60.54;99376.27;235446;1192;138643;-70
2023/01/26 11:58:53;;;;;;;21.10;12.90;;;;;;;3.31;59.97;99371.20;234421;1193;138510;-70
2023/01/26 12:03:58;;;;;;;20.20;13.20;;;;;;;3.28;60.14;99369.00;235320;1193;138200;-70
2023/01/26 12:09:25;;;;;;;27.50;13.60;;;;;;;3.28;60.00;99361.27;234762;1196;138661;-70
2023/01/26 12:14:45;;;;;;;109.10;64.00;;;;;;;3.30;60.75;99352.83;234704;1194;139304;-71
2023/01/26 12:20:22;;;;;;;25.20;16.30;;;;;;;3.41;60.41;99344.96;233503;1193;138439;-70
2023/01/26 12:25:40;;;;;;;23.30;14.60;;;;;;;3.41;59.99;99344.27;235292;1193;138751;-70
2023/01/26 12:30:56;;;;;;;20.70;13.60;;;;;;;3.39;60.06;99350.48;235508;1193;138787;-71
2023/01/26 12:36:38;;;;;;;25.30;14.50;;;;;;;3.38;60.27;99347.36;235193;1193;138776;-72
2023/01/26 12:42:02;;;;;;;20.80;14.10;;;;;;;3.37;60.14;99337.73;235483;1196;138149;-71
2023/01/26 12:47:32;;;;;;;24.10;14.30;;;;;;;3.39;59.74;99321.18;235404;1196;138530;-71
2023/01/26 12:52:49;;;;;;;20.00;12.80;;;;;;;3.40;59.81;99315.20;234739;1193;138465;-70
2023/01/26 12:58:04;;;;;;;22.80;14.30;;;;;;;3.42;59.73;99316.91;233430;1198;139132;-72
2023/01/26 13:03:23;;;;;;;33.60;17.20;;;;;;;3.44;60.25;99313.86;235467;1193;138740;-69
2023/01/26 13:08:30;;;;;;;41.60;19.30;;;;;;;3.46;59.49;99308.88;234528;1193;138879;-71
2023/01/26 13:13:54;;;;;;;28.90;15.70;;;;;;;3.46;59.82;99316.41;235389;1196;139288;-70
2023/01/26 13:19:00;;;;;;;23.70;14.10;;;;;;;3.42;60.09;99308.64;233665;1193;138533;-71
2023/01/26 13:24:30;;;;;;;;;;;;;;;3.41;60.07;99306.75;234185;1193;138087;-71
2023/01/26 13:29:50;;;;;;;20.90;14.10;;;;;;;3.36;59.82;99305.66;235361;1193;124547;-71
2023/01/26 13:35:00;;;;;;;20.20;14.10;;;;;;;3.34;59.67;99309.41;233849;1193;138450;-70
2023/01/26 13:40:20;;;;;;;22.60;14.30;;;;;;;3.32;59.84;99310.49;234379;1196;139012;-70
2023/01/26 13:45:55;;;;;;;22.80;14.10;;;;;;;3.38;59.63;99315.25;232160;1192;138365;-69
2023/01/26 13:51:02;;;;;;;21.70;14.60;;;;;;;3.35;59.84;99319.02;232931;1193;138854;-70
2023/01/26 13:56:21;;;;;;;20.70;13.70;;;;;;;3.30;59.69;99318.98;234294;1196;139280;-70
2023/01/26 14:01:25;;;;;;;22.90;14.20;;;;;;;3.29;60.04;99323.58;235299;1197;138704;-69
2023/01/26 14:06:29;;;;;;;22.70;13.80;;;;;;;3.27;59.83;99322.59;233251;1193;139229;-71
2023/01/26 14:11:35;;;;;;;21.30;14.00;;;;;;;3.24;59.92;99325.98;235303;1192;138751;-71
2023/01/26 14:16:39;;;;;;;20.50;14.10;;;;;;;3.22;59.99;99325.70;235392;1193;138382;-70
2023/01/26 14:21:54;;;;;;;20.60;13.60;;;;;;;3.22;59.87;99323.76;235243;1193;139862;-70
2023/01/26 14:27:00;;;;;;;20.70;13.70;;;;;;;3.22;59.67;99317.28;234223;1193;138740;-69
2023/01/26 14:32:14;;;;;;;23.10;14.20;;;;;;;3.23;59.87;99311.11;235087;1192;138936;-71
2023/01/26 14:37:18;;;;;;;23.50;14.60;;;;;;;3.20;59.61;99311.02;234349;1193;138678;-66
2023/01/26 14:42:24;;;;;;;24.40;15.40;;;;;;;3.22;59.63;99310.98;235471;1192;138404;-69
2023/01/26 14:47:29;;;;;;;23.20;15.10;;;;;;;3.23;59.78;99311.98;235310;1192;139189;-70
2023/01/26 14:52:37;;;;;;;25.20;15.50;;;;;;;3.22;59.76;99310.26;235397;1192;138592;-70
2023/01/26 14:57:42;;;;;;;25.50;15.30;;;;;;;3.18;59.93;99310.19;235227;1193;138417;-69
2023/01/26 15:02:48;;;;;;;24.00;16.20;;;;;;;3.17;59.61;99307.78;232930;1197;138826;-69
2023/01/26 15:08:01;;;;;;;25.00;15.30;;;;;;;3.12;60.06;99302.50;235380;1193;139017;-70
2023/01/26 15:13:07;;;;;;;22.50;14.90;;;;;;;3.08;59.77;99304.34;233019;1193;138485;-70
2023/01/26 15:18:12;;;;;;;23.10;14.10;;;;;;;3.04;59.98;99296.74;235193;1196;139050;-69
2023/01/26 15:23:35;;;;;;;22.40;14.80;;;;;;;3.00;60.22;99301.23;235009;1193;139245;-71
2023/01/26 15:28:40;;;;;;;21.90;14.20;;;;;;;2.95;60.10;99299.27;235157;1193;138929;-71
2023/01/26 15:33:48;;;;;;;22.60;14.20;;;;;;;2.92;60.28;99297.08;234669;1193;139501;-71
2023/01/26 15:38:57;;;;;;;21.30;13.90;;;;;;;2.95;60.46;99299.44;235305;1196;138590;-71
2023/01/26 15:44:01;;;;;;;29.20;15.00;;;;;;;2.96;60.68;99303.09;234475;1196;139664;-71
2023/01/26 15:49:05;;;;;;;23.70;15.00;;;;;;;2.95;60.52;99304.86;235308;1192;139322;-71
2023/01/26 15:54:10;;;;;;;23.10;15.60;;;;;;;2.90;61.23;99303.77;234143;1193;139441;-72
2023/01/26 15:59:16;;;;;;;22.90;15.50;;;;;;;2.88;61.98;99301.37;235216;1196;138702;-71
2023/01/26 16:04:22;;;;;;;26.40;15.30;;;;;;;2.89;61.87;99298.72;233743;1193;138676;-72
2023/01/26 16:09:25;;;;;;;23.40;15.70;;;;;;;2.88;61.66;99297.17;235176;1193;138467;-72
2023/01/26 16:14:28;;;;;;;19.40;14.20;;;;;;;2.86;61.76;99293.36;235343;1196;138749;-73
2023/01/26 16:19:31;;;;;;;27.30;17.60;;;;;;;2.86;62.12;99298.12;235260;1193;138294;-71
2023/01/26 16:24:39;;;;;;;24.20;17.20;;;;;;;2.89;62.49;99295.20;235573;1192;139103;-71
2023/01/26 16:29:42;;;;;;;23.50;15.50;;;;;;;2.86;62.51;99296.00;235221;1193;139059;-71
2023/01/26 16:34:45;;;;;;;21.40;14.80;;;;;;;2.84;62.37;99292.71;235323;1193;139848;-71
2023/01/26 16:39:49;;;;;;;24.60;15.00;;;;;;;2.82;62.30;99293.64;235050;1193;139203;-72
2023/01/26 16:44:52;;;;;;;23.50;14.80;;;;;;;2.79;62.56;99292.83;234866;1193;139371;-71
2023/01/26 16:49:55;;;;;;;24.10;16.20;;;;;;;2.76;62.61;99288.91;235101;1196;138980;-71
2023/01/26 16:54:58;;;;;;;21.80;14.30;;;;;;;2.76;62.58;99285.23;235388;1194;138256;-71
2023/01/26 17:00:03;;;;;;;50.50;31.10;;;;;;;2.85;63.10;99287.98;232839;1193;139475;-71
2023/01/26 17:05:13;;;;;;;23.80;15.50;;;;;;;2.90;62.84;99283.28;234251;1196;138649;-70
2023/01/26 17:10:17;;;;;;;23.60;15.30;;;;;;;2.84;62.48;99280.11;235215;1196;138816;-70
2023/01/26 17:15:24;;;;;;;23.70;15.70;;;;;;;2.80;62.53;99277.23;234312;1193;138555;-72
2023/01/26 17:20:27;;;;;;;24.40;16.10;;;;;;;2.76;62.67;99278.73;235445;1193;140117;-71
2023/01/26 17:25:31;;;;;;;24.70;15.80;;;;;;;2.74;62.90;99274.92;235384;1192;138484;-71
2023/01/26 17:30:34;;;;;;;26.90;16.40;;;;;;;2.70;62.90;99268.92;235294;1192;138788;-70
2023/01/26 17:35:37;;;;;;;26.10;17.10;;;;;;;2.68;62.87;99267.92;235217;1192;138486;-70
2023/01/26 17:40:41;;;;;;;29.30;17.30;;;;;;;2.69;63.06;99273.52;235401;1193;138606;-70
2023/01/26 17:45:45;;;;;;;26.70;17.20;;;;;;;2.67;63.24;99273.55;235092;1193;139436;-71
2023/01/26 17:50:50;;;;;;;27.80;18.10;;;;;;;2.66;63.04;99279.53;235522;1192;139009;-71
2023/01/26 17:55:54;;;;;;;29.50;18.10;;;;;;;2.66;63.11;99276.75;235256;1191;138596;-71
2023/01/26 18:00:58;;;;;;;29.30;18.40;;;;;;;2.66;63.24;99276.02;235547;1192;138389;-71
2023/01/26 18:06:03;;;;;;;26.80;16.80;;;;;;;2.66;63.31;99273.59;234629;1193;138488;-71
2023/01/26 18:11:11;;;;;;;27.30;16.80;;;;;;;2.66;62.87;99277.42;233815;1192;139603;-70
2023/01/26 18:16:18;;;;;;;26.70;18.00;;;;;;;2.67;63.16;99283.54;235464;1193;140332;-70
2023/01/26 18:21:25;;;;;;;31.10;19.60;;;;;;;2.64;63.11;99285.89;235464;1192;138465;-70
2023/01/26 18:26:33;;;;;;;31.30;20.90;;;;;;;2.59;63.29;99288.98;234990;1192;138600;-70
2023/01/26 18:31:39;;;;;;;34.30;21.70;;;;;;;2.61;63.59;99294.73;234934;1192;138664;-70
2023/01/26 18:36:44;;;;;;;34.00;21.50;;;;;;;2.67;63.40;99291.42;234129;1193;139164;-70
2023/01/26 18:41:48;;;;;;;35.10;22.00;;;;;;;2.77;63.33;99293.97;232669;1192;140167;-74
2023/01/26 18:46:52;;;;;;;35.20;21.10;;;;;;;2.82;62.83;99296.63;235277;1192;139400;-73
2023/01/26 18:51:55;;;;;;;56.10;37.40;;;;;;;2.86;63.38;99295.48;235590;1192;139059;-72
2023/01/26 18:57:01;;;;;;;34.70;20.40;;;;;;;2.92;63.11;99297.23;235511;1192;138637;-74
2023/01/26 19:02:06;;;;;;;36.30;20.50;;;;;;;2.92;62.98;99301.97;233083;1192;138359;-73
2023/01/26 19:07:11;;;;;;;35.60;20.80;;;;;;;2.91;62.80;99304.27;235131;1192;139294;-74
2023/01/26 19:12:16;;;;;;;;;;;;;;;2.86;62.93;99300.89;231062;1193;139604;-74
2023/01/26 19:17:20;;;;;;;34.40;21.30;;;;;;;2.80;62.89;99303.34;235511;1193;125157;-73
2023/01/26 19:22:25;;;;;;;35.50;22.00;;;;;;;2.77;63.15;99299.39;234418;1192;139117;-75
2023/01/26 19:27:31;;;;;;;37.40;22.10;;;;;;;2.72;63.06;99297.77;234747;1192;139610;-74
2023/01/26 19:32:35;;;;;;;33.90;21.40;;;;;;;2.69;63.49;99292.44;235604;1192;139006;-73
2023/01/26 19:37:39;;;;;;;32.80;20.50;;;;;;;2.67;63.46;99282.66;235507;1192;138448;-73
2023/01/26 19:42:43;;;;;;;32.00;19.80;;;;;;;2.67;63.54;99282.48;235416;1192;139431;-74
2023/01/26 19:47:47;;;;;;;35.40;21.10;;;;;;;2.65;63.30;99279.02;235243;1193;138569;-73
2023/01/26 19:52:51;;;;;;;192.90;123.80;;;;;;;2.64;63.95;99278.00;232301;1192;140811;-73
2023/01/26 19:57:55;;;;;;;43.20;24.80;;;;;;;2.73;64.10;99274.80;235131;1193;138943;-74
2023/01/26 20:03:01;;;;;;;36.80;21.50;;;;;;;2.73;63.73;99268.51;233260;1192;138556;-74
2023/01/26 20:08:06;;;;;;;33.30;20.90;;;;;;;2.70;63.46;99263.31;233073;1191;139113;-74
2023/01/26 20:13:10;;;;;;;33.10;20.90;;;;;;;2.71;63.58;99257.35;235606;1192;139525;-73
2023/01/26 20:18:14;;;;;;;34.10;21.10;;;;;;;2.66;63.54;99257.10;235367;1193;138393;-74
2023/01/26 20:23:20;;;;;;;119.10;71.40;;;;;;;2.84;65.58;99259.60;233137;1192;138316;-73
2023/01/26 20:28:25;;;;;;;33.10;21.70;;;;;;;3.60;66.03;99249.88;235466;1193;139113;-74
2023/01/26 20:33:29;;;;;;;30.40;20.60;;;;;;;3.45;62.80;99251.55;234960;1193;139027;-75
2023/01/26 20:38:35;;;;;;;34.20;22.20;;;;;;;3.25;62.37;99246.88;234488;1193;138911;-74
2023/01/26 20:43:40;;;;;;;37.00;23.80;;;;;;;3.14;62.22;99248.25;231457;1193;138952;-76
2023/01/26 20:49:00;;;;;;;50.50;33.30;;;;;;;3.04;62.55;99245.21;234639;1193;139178;-65
2023/01/26 20:54:05;;;;;;;41.20;27.00;;;;;;;4.83;71.26;99238.78;234453;1193;138522;-77
2023/01/26 20:59:11;;;;;;;44.30;26.50;;;;;;;5.21;60.25;99233.91;233471;1196;140177;-79
2023/01/26 21:04:15;;;;;;;41.70;26.10;;;;;;;4.57;59.74;99232.33;235096;1192;139565;-77
2023/01/26 21:09:23;;;;;;;41.60;25.80;;;;;;;4.20;59.97;99231.84;235482;1193;138979;-75
2023/01/26 21:14:26;;;;;;;38.30;26.10;;;;;;;3.83;60.51;99236.02;235572;1192;139433;-77
2023/01/26 21:19:30;;;;;;;44.30;27.30;;;;;;;3.56;60.93;99237.38;233935;1192;138932;-77
2023/01/26 21:24:34;;;;;;;43.30;26.60;;;;;;;3.32;61.54;99248.27;234033;1193;138406;-76
2023/01/26 21:29:39;;;;;;;42.80;26.10;;;;;;;3.15;61.91;99247.19;234579;1191;138500;-77
2023/01/26 21:34:43;;;;;;;45.00;27.60;;;;;;;3.01;62.49;99244.23;235188;1192;138745;-77
2023/01/26 21:39:47;;;;;;;43.10;26.50;;;;;;;2.92;62.75;99236.42;235567;1193;138426;-77
2023/01/26 21:52:56;;;;;;;43.10;25.30;;;;;;;2.78;62.97;99230.67;235281;1193;138552;-77
2023/01/26 21:55:45;;;;;;;43.80;26.70;;;;;;;2.71;63.24;99227.21;235468;1192;139531;-76
2023/01/26 22:00:48;;;;;;;46.60;26.60;;;;;;;2.66;63.61;99226.64;235544;1192;138810;-76
2023/01/26 22:05:55;;;;;;;46.40;26.70;;;;;;;2.65;63.64;99214.23;235056;1193;138935;-78
2023/01/26 22:10:59;;;;;;;33.50;20.40;;;;;;;2.64;63.81;99215.84;234839;1192;138251;-75
2023/01/26 22:16:05;;;;;;;45.00;27.60;;;;;;;2.63;63.93;99218.14;234609;1193;138548;-72
2023/01/26 22:21:14;;;;;;;46.00;27.40;;;;;;;2.60;64.10;99219.96;233766;1193;139088;-74
2023/01/26 22:26:20;;;;;;;45.30;27.30;;;;;;;2.58;64.10;99218.10;234496;1193;138644;-74
2023/01/26 22:31:27;;;;;;;49.00;28.20;;;;;;;2.55;64.32;99216.93;235457;1192;139451;-74
2023/01/26 22:36:32;;;;;;;50.20;29.00;;;;;;;2.55;64.13;99214.33;235435;1193;138487;-74
2023/01/26 22:41:36;;;;;;;46.10;27.90;;;;;;;2.54;64.46;99210.68;235523;1192;139585;-73
2023/01/26 22:46:40;;;;;;;48.30;29.40;;;;;;;2.51;64.35;99213.03;235485;1193;138372;-72
2023/01/26 22:51:43;;;;;;;47.60;28.40;;;;;;;2.48;64.59;99210.29;235531;1192;138542;-71
2023/01/26 22:56:46;;;;;;;46.20;29.00;;;;;;;2.48;64.54;99209.08;235297;1195;138370;-73
2023/01/26 23:01:50;;;;;;;50.80;29.00;;;;;;;2.49;64.67;99208.69;235207;1195;138443;-71
2023/01/26 23:06:53;;;;;;;47.40;28.50;;;;;;;2.49;64.84;99204.14;235651;1193;139742;-71
2023/01/26 23:12:00;;;;;;;49.20;28.80;;;;;;;2.52;64.53;99203.88;235532;1192;138686;-71
2023/01/26 23:17:04;;;;;;;48.50;28.30;;;;;;;2.57;64.60;99203.92;235322;1193;139791;-71
2023/01/26 23:22:07;;;;;;;47.20;28.60;;;;;;;2.66;64.41;99198.63;235372;1192;139196;-71
2023/01/26 23:27:11;;;;;;;53.30;30.40;;;;;;;2.72;64.38;99196.86;232592;1193;140496;-73
2023/01/26 23:32:15;;;;;;;53.40;31.80;;;;;;;2.74;64.39;99195.39;235469;1192;138464;-73
2023/01/26 23:37:21;;;;;;;59.80;34.00;;;;;;;2.75;64.45;99195.91;232318;1192;138658;-74
2023/01/26 23:42:24;;;;;;;59.20;34.30;;;;;;;2.74;64.32;99198.73;235595;1191;138381;-75
2023/01/26 23:47:28;;;;;;;53.60;31.80;;;;;;;2.72;64.39;99204.21;233525;1192;138505;-74
2023/01/26 23:52:32;;;;;;;53.70;32.90;;;;;;;2.69;64.48;99208.33;235345;1192;139024;-72
2023/01/26 23:57:35;;;;;;;54.90;32.20;;;;;;;2.67;64.45;99208.38;234231;1193;139106;-74
